Time;durP1;ratioP1;P1;durP2;ratioP2;P2;SDS_P1;SDS_P2;PMS_P1;PMS_P2;Temp;Humidity;BMP_temperature;BMP_pressure;BME280_temperature;BME280_humidity;BME280_pressure;Samples;Min_cycle;Max_cycle;Signal;HPM_P1;HPM_P2
2021/08/15 00:00:12;;;;;;;23.80;18.65;;;;;;;17.44;72.21;100278.00;1741404;82;25697;-66
2021/08/15 00:02:42;;;;;;;24.55;19.52;;;;;;;17.39;72.24;100282.37;1741324;82;25796;-66
2021/08/15 00:05:10;;;;;;;24.45;18.32;;;;;;;17.34;72.70;100276.01;1741396;82;25730;-66
2021/08/15 00:07:40;;;;;;;20.83;17.83;;;;;;;17.29;72.78;100270.81;1741664;82;27331;-66
2021/08/15 00:10:08;;;;;;;21.35;17.85;;;;;;;17.28;72.87;100269.80;1741450;82;25726;-65
2021/08/15 00:12:36;;;;;;;22.48;18.75;;;;;;;17.26;73.04;100273.47;1741695;81;25737;-65
2021/08/15 00:15:06;;;;;;;21.90;17.80;;;;;;;17.20;72.97;100267.48;1741372;82;25710;-65
2021/08/15 00:17:32;;;;;;;22.95;18.32;;;;;;;17.18;73.04;100267.05;1741411;82;25733;-66
2021/08/15 00:19:58;;;;;;;22.82;17.90;;;;;;;17.15;73.12;100265.81;1710414;82;27392;-65
2021/08/15 00:22:25;;;;;;;20.62;18.02;;;;;;;17.13;73.23;100265.38;1741285;82;25697;-66
2021/08/15 00:24:52;;;;;;;21.40;17.37;;;;;;;17.12;73.44;100265.14;1741282;82;25891;-66
2021/08/15 00:27:18;;;;;;;22.32;18.82;;;;;;;17.10;73.24;100258.46;1741400;81;26384;-66
2021/08/15 00:29:45;;;;;;;23.92;18.77;;;;;;;17.06;73.41;100262.48;1741416;82;26339;-65
2021/08/15 00:32:11;;;;;;;22.48;17.73;;;;;;;17.05;73.36;100271.81;1741436;81;27287;-66
2021/08/15 00:34:38;;;;;;;22.52;17.27;;;;;;;17.04;73.34;100271.58;1743222;82;26417;-66
2021/08/15 00:37:04;;;;;;;25.82;18.98;;;;;;;17.02;73.39;100276.61;1743245;82;25819;-65
2021/08/15 00:39:31;;;;;;;21.50;17.62;;;;;;;16.97;73.45;100268.67;1743175;82;27806;-65
2021/08/15 00:41:59;;;;;;;24.75;18.60;;;;;;;16.95;73.52;100266.88;1743219;82;25767;-66
2021/08/15 00:44:25;;;;;;;22.00;17.48;;;;;;;16.94;73.72;100260.63;1743194;82;27324;-65
2021/08/15 00:46:52;;;;;;;21.95;17.15;;;;;;;16.91;73.68;100263.27;1743058;82;27090;-65
2021/08/15 00:49:19;;;;;;;23.32;18.30;;;;;;;16.90;73.85;100269.88;1743207;82;25755;-65
2021/08/15 00:51:45;;;;;;;20.43;17.52;;;;;;;16.87;73.75;100267.25;1743191;82;25717;-67
2021/08/15 00:54:12;;;;;;;24.05;18.67;;;;;;;16.85;73.82;100266.82;1743069;82;26339;-66
2021/08/15 00:56:38;;;;;;;25.55;19.07;;;;;;;16.84;73.87;100265.25;1743163;82;27359;-66
2021/08/15 00:59:06;;;;;;;23.10;18.87;;;;;;;16.82;73.88;100266.12;1743042;82;25637;-66
2021/08/15 01:01:35;;;;;;;29.02;20.68;;;;;;;16.77;73.97;100260.37;1743219;82;25823;-66
2021/08/15 01:04:04;;;;;;;23.98;19.80;;;;;;;16.76;74.07;100260.14;1743147;82;26348;-66
2021/08/15 01:06:33;;;;;;;23.40;18.52;;;;;;;16.74;74.23;100258.34;1743339;82;25781;-66
2021/08/15 01:09:02;;;;;;;23.73;18.45;;;;;;;16.72;74.23;100257.09;1743343;82;27393;-66
2021/08/15 01:11:31;;;;;;;26.73;18.60;;;;;;;16.70;74.19;100250.64;1743367;82;25765;-66
2021/08/15 01:14:06;;;;;;;28.52;18.87;;;;;;;16.69;74.25;100255.87;1743201;82;25681;-65
2021/08/15 01:16:37;;;;;;;21.85;18.90;;;;;;;16.68;74.39;100250.75;1743282;82;26425;-66
2021/08/15 01:19:04;;;;;;;24.32;19.40;;;;;;;16.67;74.26;100255.43;1742941;82;25777;-66
2021/08/15 01:21:31;;;;;;;21.00;18.62;;;;;;;16.66;74.58;100246.22;1743148;82;27325;-66
2021/08/15 01:23:57;;;;;;;26.12;19.15;;;;;;;16.62;74.35;100252.38;1719979;82;25673;-66
2021/08/15 01:26:24;;;;;;;23.52;19.37;;;;;;;16.61;74.46;100247.27;1743195;82;25679;-66
2021/08/15 01:28:53;;;;;;;23.62;19.62;;;;;;;16.61;74.42;100245.90;1743159;82;26340;-66
2021/08/15 01:31:22;;;;;;;26.77;20.55;;;;;;;16.60;74.50;100251.13;1743349;82;25846;-66
2021/08/15 01:33:49;;;;;;;;;;;;;;;16.58;74.63;100247.96;1705178;83;27463;-66
2021/08/15 01:36:18;;;;;;;23.73;19.20;;;;;;;16.56;74.93;100246.16;1714897;83;25314;-66
2021/08/15 01:38:48;;;;;;;25.23;19.50;;;;;;;16.52;74.79;100243.92;1715025;83;25662;-66
2021/08/15 01:41:14;;;;;;;;;;;;;;;16.50;74.82;100242.09;1717711;83;25667;-66
2021/08/15 01:43:57;;;;;;;27.77;19.65;;;;;;;16.49;74.98;100237.79;1715083;83;25742;-66
2021/08/15 01:46:28;;;;;;;26.60;20.45;;;;;;;16.44;74.77;100241.56;1715182;83;27376;-66
2021/08/15 01:48:56;;;;;;;25.25;20.60;;;;;;;16.42;74.68;100241.13;1713996;83;25919;-66
2021/08/15 01:51:23;;;;;;;26.65;20.40;;;;;;;16.40;74.73;100244.20;1714849;83;25713;-66
2021/08/15 01:53:53;;;;;;;24.05;19.62;;;;;;;16.38;74.78;100243.76;1714846;83;26361;-66
2021/08/15 01:56:21;;;;;;;29.95;21.82;;;;;;;16.36;74.81;100246.05;1715093;83;25802;-65
2021/08/15 01:58:48;;;;;;;26.00;20.55;;;;;;;16.35;74.93;100238.20;1714699;83;27957;-66
2021/08/15 02:01:20;;;;;;;26.12;21.52;;;;;;;16.34;75.05;100237.97;1714741;83;26410;-66
2021/08/15 02:03:47;;;;;;;25.60;19.65;;;;;;;;;;1714661;83;25780;-65
2021/08/15 02:06:14;;;;;;;24.75;20.17;;;;;;;16.28;74.82;100238.81;1715010;83;25665;-65
2021/08/15 02:08:41;;;;;;;28.42;20.85;;;;;;;16.25;74.89;100236.19;1714669;83;25761;-65
2021/08/15 02:11:08;;;;;;;26.48;21.33;;;;;;;16.23;74.99;100230.30;1715013;83;27497;-65
2021/08/15 02:13:34;;;;;;;26.75;20.65;;;;;;;16.20;75.02;100231.56;1715009;83;25713;-65
2021/08/15 02:16:01;;;;;;;27.22;21.07;;;;;;;16.17;74.95;100227.58;1714998;83;25714;-65
2021/08/15 02:18:28;;;;;;;28.10;20.88;;;;;;;16.15;74.99;100226.36;1714997;83;25742;-65
2021/08/15 02:20:54;;;;;;;29.45;21.65;;;;;;;16.11;75.04;100222.75;1715029;83;25749;-65
2021/08/15 02:23:21;;;;;;;27.87;21.62;;;;;;;16.09;75.29;100220.91;1715017;83;27266;-65
2021/08/15 02:25:47;;;;;;;31.48;20.95;;;;;;;16.04;75.16;100214.58;1714601;83;25733;-65
2021/08/15 02:28:13;;;;;;;30.05;21.75;;;;;;;16.02;75.15;100216.87;1714711;83;25807;-65
2021/08/15 02:30:40;;;;;;;24.77;20.52;;;;;;;15.99;75.20;100217.56;1713416;83;26206;-65
2021/08/15 02:33:07;;;;;;;27.17;22.45;;;;;;;15.96;75.23;100216.88;1717426;82;25724;-65
2021/08/15 02:35:33;;;;;;;29.72;23.42;;;;;;;15.94;75.31;100212.34;1743193;82;28561;-65
2021/08/15 02:38:00;;;;;;;26.42;21.93;;;;;;;15.92;75.26;100222.82;1743083;82;26368;-65
2021/08/15 02:40:27;;;;;;;24.72;21.40;;;;;;;15.90;74.77;100231.11;1743133;82;25641;-65
2021/08/15 02:42:54;;;;;;;28.47;22.48;;;;;;;15.88;74.04;100228.73;1743091;82;25751;-65
2021/08/15 02:45:25;;;;;;;27.62;21.48;;;;;;;15.86;74.14;100232.38;1743117;82;25736;-65
2021/08/15 02:47:52;;;;;;;29.48;22.65;;;;;;;15.84;74.13;100230.57;1743014;82;27999;-65
2021/08/15 02:50:20;;;;;;;24.07;20.57;;;;;;;15.81;74.14;100232.04;1743091;82;25729;-65
2021/08/15 02:52:48;;;;;;;28.55;21.95;;;;;;;15.80;74.64;100232.38;1743108;82;25769;-65
2021/08/15 02:55:15;;;;;;;28.30;22.25;;;;;;;15.77;74.74;100229.80;1743125;82;25788;-65
2021/08/15 02:57:42;;;;;;;29.50;23.40;;;;;;;15.75;74.75;100225.78;1743173;82;25679;-65
2021/08/15 03:00:11;;;;;;;33.65;22.60;;;;;;;15.73;75.74;100228.06;1743088;82;27276;-65
2021/08/15 03:02:38;;;;;;;28.47;22.77;;;;;;;15.71;75.34;100220.80;1743180;82;26334;-65
2021/08/15 03:05:07;;;;;;;29.35;22.30;;;;;;;15.71;74.93;100220.80;1743087;82;25735;-65
2021/08/15 03:07:34;;;;;;;25.27;21.77;;;;;;;15.72;74.66;100227.86;1720013;82;26188;-65
2021/08/15 03:10:01;;;;;;;29.85;22.58;;;;;;;15.69;74.77;100220.56;1743145;82;25637;-65
2021/08/15 03:12:27;;;;;;;29.07;23.25;;;;;;;15.71;74.86;100219.44;1743178;82;27341;-65
2021/08/15 03:14:53;;;;;;;30.35;22.22;;;;;;;15.69;74.93;100223.87;1743063;82;25645;-66
2021/08/15 03:17:19;;;;;;;28.45;22.42;;;;;;;15.69;76.28;100217.84;1743148;81;25744;-65
2021/08/15 03:19:46;;;;;;;28.30;23.07;;;;;;;15.69;76.58;100216.48;1743065;82;25712;-65
2021/08/15 03:22:13;;;;;;;28.45;21.77;;;;;;;15.66;76.65;100215.02;1743123;82;25801;-65
2021/08/15 03:24:39;;;;;;;32.38;23.35;;;;;;;15.64;76.46;100218.66;1743129;82;27406;-65
2021/08/15 03:27:06;;;;;;;27.15;22.48;;;;;;;15.62;76.69;100219.00;1743018;82;25698;-65
2021/08/15 03:29:33;;;;;;;33.13;25.60;;;;;;;15.62;76.67;100219.58;1743121;82;25732;-65
2021/08/15 03:32:00;;;;;;;34.23;26.17;;;;;;;15.61;77.74;100223.44;1743119;82;25829;-65
2021/08/15 03:34:27;;;;;;;32.13;25.30;;;;;;;15.61;78.24;100220.16;1743114;81;25754;-65
2021/08/15 03:36:53;;;;;;;33.23;24.87;;;;;;;15.61;78.61;100218.80;1743197;82;27311;-65
2021/08/15 03:39:21;;;;;;;33.55;25.45;;;;;;;15.63;78.49;100217.06;1743204;82;26022;-66
2021/08/15 03:41:48;;;;;;;30.50;25.02;;;;;;;15.64;77.21;100216.72;1743256;82;25718;-65
2021/08/15 03:44:14;;;;;;;31.80;25.17;;;;;;;15.66;77.28;100217.73;1743137;82;27846;-65
2021/08/15 03:46:41;;;;;;;31.30;25.30;;;;;;;15.70;77.59;100214.56;1743302;82;25797;-65
2021/08/15 03:49:08;;;;;;;32.83;25.15;;;;;;;15.71;77.68;100214.77;1743266;82;27348;-65
2021/08/15 03:51:34;;;;;;;31.70;24.70;;;;;;;15.73;77.60;100204.89;1743160;82;26033;-65
2021/08/15 03:54:00;;;;;;;32.33;24.77;;;;;;;15.77;78.05;100208.55;1743244;82;25784;-65
2021/08/15 03:56:27;;;;;;;30.12;23.80;;;;;;;15.78;78.82;100202.76;1743219;82;26311;-65
2021/08/15 03:58:53;;;;;;;33.08;25.70;;;;;;;15.80;79.57;100201.84;1743262;82;25983;-65
2021/08/15 04:01:21;;;;;;;29.57;24.52;;;;;;;15.82;79.34;100205.00;1743182;82;27301;-65
2021/08/15 04:03:47;;;;;;;33.50;25.27;;;;;;;15.83;79.53;100205.79;1743188;82;25724;-65
2021/08/15 04:06:20;;;;;;;33.88;25.32;;;;;;;15.85;79.57;100205.68;1743198;82;25775;-65
2021/08/15 04:08:41;;;;;;;31.70;24.75;;;;;;;15.89;79.83;100200.91;1719441;82;25742;-65
2021/08/15 04:11:08;;;;;;;35.17;26.02;;;;;;;15.92;79.76;100201.55;1743252;82;25785;-65
2021/08/15 04:13:34;;;;;;;32.85;25.43;;;;;;;15.96;80.01;100197.78;1743236;82;27358;-65
2021/08/15 04:16:00;;;;;;;31.00;24.25;;;;;;;15.98;80.35;100201.53;1743182;82;25757;-65
2021/08/15 04:18:27;;;;;;;34.43;25.82;;;;;;;16.01;80.19;100200.27;1743192;82;25673;-65
2021/08/15 04:20:53;;;;;;;32.95;25.50;;;;;;;16.05;80.59;100195.69;1743125;82;25713;-65
2021/08/15 04:23:21;;;;;;;34.35;25.40;;;;;;;16.11;80.78;100192.73;1743199;82;25726;-65
2021/08/15 04:25:47;;;;;;;38.13;25.50;;;;;;;16.15;80.94;100182.13;1743181;82;28072;-65
2021/08/15 04:28:13;;;;;;;34.38;24.87;;;;;;;16.21;81.04;100189.50;1743133;82;25712;-65
2021/08/15 04:30:40;;;;;;;31.90;24.43;;;;;;;16.24;80.95;100186.05;1743245;82;25670;-65
2021/08/15 04:33:06;;;;;;;32.45;24.92;;;;;;;16.29;80.81;100196.71;1743088;82;25773;-65
2021/08/15 04:35:33;;;;;;;33.20;26.15;;;;;;;16.35;80.79;100187.72;1743186;81;25737;-65
2021/08/15 04:37:59;;;;;;;33.85;25.68;;;;;;;16.39;80.99;100185.28;1743314;82;27541;-65
2021/08/15 04:40:26;;;;;;;35.95;26.05;;;;;;;16.43;80.79;100179.36;1743106;82;25689;-65
2021/08/15 04:42:53;;;;;;;34.38;26.25;;;;;;;16.48;80.97;100180.23;1720139;82;25815;-65
2021/08/15 04:45:19;;;;;;;33.35;27.20;;;;;;;16.52;81.11;100188.73;1743168;82;26403;-65
2021/08/15 04:47:45;;;;;;;33.20;27.10;;;;;;;16.58;81.40;100180.52;1743198;82;25704;-65
2021/08/15 04:50:12;;;;;;;30.95;25.77;;;;;;;16.62;81.63;100180.59;1744759;82;27422;-65
2021/08/15 04:52:38;;;;;;;31.40;26.00;;;;;;;16.67;81.68;100178.97;1743139;82;25872;-65
2021/08/15 04:55:06;;;;;;;31.15;26.35;;;;;;;16.74;81.87;100179.13;1743228;82;25760;-65
2021/08/15 04:57:35;;;;;;;31.37;25.88;;;;;;;16.80;82.30;100177.73;1743227;82;25692;-65
2021/08/15 05:00:05;;;;;;;34.92;26.37;;;;;;;16.87;82.39;100177.11;1743366;82;26295;-70
2021/08/15 05:02:31;;;;;;;;;;;;;;;16.96;82.65;100179.68;1745801;82;28045;-69
2021/08/15 05:04:59;;;;;;;34.40;25.55;;;;;;;17.07;82.69;100188.12;1743154;82;25701;-70
2021/08/15 05:07:26;;;;;;;36.03;25.45;;;;;;;17.16;82.75;100189.52;1743192;82;25745;-70
2021/08/15 05:09:53;;;;;;;34.00;24.72;;;;;;;17.28;82.85;100190.53;1743169;82;26145;-70
2021/08/15 05:12:20;;;;;;;33.95;24.98;;;;;;;17.40;82.87;100185.52;1743281;82;25634;-71
2021/08/15 05:14:46;;;;;;;30.02;23.38;;;;;;;17.52;82.96;100187.56;1743201;82;27333;-71
2021/08/15 05:17:13;;;;;;;31.60;23.95;;;;;;;17.67;82.94;100187.84;1743064;82;25781;-71
2021/08/15 05:19:39;;;;;;;29.42;24.98;;;;;;;17.82;83.11;100182.87;1720095;82;25773;-71
2021/08/15 05:22:06;;;;;;;29.45;22.98;;;;;;;18.02;83.31;100176.06;1743173;82;25894;-71
2021/08/15 05:24:32;;;;;;;36.75;24.82;;;;;;;18.20;83.12;100177.19;1743182;82;25832;-70
2021/08/15 05:26:58;;;;;;;29.92;22.25;;;;;;;18.37;82.66;100175.11;1743312;82;27490;-70
2021/08/15 05:29:25;;;;;;;27.93;23.05;;;;;;;18.51;82.41;100178.12;1743079;82;25742;-65
2021/08/15 05:31:52;;;;;;;33.28;22.82;;;;;;;18.67;82.12;100173.87;1743196;82;25726;-66
2021/08/15 05:34:18;;;;;;;30.68;22.70;;;;;;;18.81;81.85;100170.56;1742837;82;25708;-65
2021/08/15 05:36:44;;;;;;;26.80;21.55;;;;;;;18.98;81.79;100171.44;1741309;82;25749;-65
2021/08/15 05:39:12;;;;;;;27.27;19.80;;;;;;;19.17;81.75;100167.81;1741341;82;27319;-70
2021/08/15 05:41:39;;;;;;;25.50;20.50;;;;;;;19.30;80.98;100168.36;1741127;82;26251;-71
2021/08/15 05:44:05;;;;;;;25.45;20.95;;;;;;;19.42;80.82;100181.06;1741330;82;26488;-71
2021/08/15 05:46:32;;;;;;;27.60;20.05;;;;;;;19.55;80.47;100174.77;1741247;82;25828;-71
2021/08/15 05:48:58;;;;;;;30.00;20.60;;;;;;;19.68;79.85;100180.80;1741378;81;25766;-71
2021/08/15 05:51:25;;;;;;;24.20;20.43;;;;;;;19.77;79.87;100182.13;1741308;82;27571;-71
2021/08/15 05:53:52;;;;;;;27.67;20.62;;;;;;;19.84;79.26;100177.89;1712272;82;25734;-71
2021/08/15 05:56:18;;;;;;;23.57;20.25;;;;;;;19.90;79.22;100170.33;1741321;82;25842;-71
2021/08/15 05:58:44;;;;;;;28.15;21.73;;;;;;;19.99;78.86;100166.47;1741236;82;25696;-71
2021/08/15 06:01:11;;;;;;;28.05;21.20;;;;;;;20.00;78.46;100172.95;1736491;82;25743;-71
2021/08/15 06:03:38;;;;;;;26.95;20.65;;;;;;;20.04;78.42;100168.31;1741063;82;27288;-71
2021/08/15 06:06:05;;;;;;;26.12;20.45;;;;;;;20.15;78.53;100159.58;1712155;82;25805;-70
2021/08/15 06:08:31;;;;;;;23.47;19.57;;;;;;;20.35;78.42;100167.62;1741292;82;25427;-70
2021/08/15 06:10:58;;;;;;;24.45;19.40;;;;;;;20.52;78.55;100166.98;1741170;82;26434;-71
2021/08/15 06:13:44;;;;;;;26.30;20.20;;;;;;;20.79;79.01;100172.91;1712071;82;25943;-71
2021/08/15 06:16:10;;;;;;;21.17;18.32;;;;;;;20.99;78.32;100171.48;1782303;79;27329;-72
2021/08/15 21:19:12;;;;;;;13.22;8.48;;;;;;;20.85;63.24;99966.62;1848998;77;27838;-65
2021/08/15 21:21:39;;;;;;;13.08;7.72;;;;;;;20.61;63.52;99962.56;1821225;78;25623;-65
2021/08/15 21:24:06;;;;;;;12.00;8.45;;;;;;;20.42;63.69;99954.81;1753662;81;27498;-65
2021/08/15 21:26:34;;;;;;;13.78;8.68;;;;;;;20.26;63.85;99957.87;1784825;80;27310;-65
2021/08/15 21:29:03;;;;;;;21.62;9.73;;;;;;;20.13;64.06;99953.85;1753871;81;25688;-65
2021/08/15 21:31:30;;;;;;;11.35;8.65;;;;;;;20.02;64.42;99949.64;1784862;80;25766;-64
2021/08/15 21:33:58;;;;;;;13.95;9.55;;;;;;;19.91;64.80;99938.59;1753899;81;25718;-65
2021/08/15 21:36:25;;;;;;;13.72;8.60;;;;;;;19.82;64.86;99943.63;1784881;80;27571;-64
2021/08/15 21:38:52;;;;;;;13.93;9.03;;;;;;;19.72;65.12;99938.82;1753450;81;25628;-64
2021/08/15 21:41:19;;;;;;;12.65;9.73;;;;;;;19.64;65.46;99943.45;1784912;80;25699;-64
2021/08/15 21:43:46;;;;;;;13.75;8.15;;;;;;;19.57;65.69;99937.31;1753868;81;25656;-65
2021/08/15 21:46:13;;;;;;;17.05;8.65;;;;;;;19.50;66.03;99938.63;1784595;80;25755;-65
2021/08/15 21:48:39;;;;;;;12.55;8.78;;;;;;;19.43;66.21;99934.45;1754000;81;27392;-63
2021/08/15 21:51:06;;;;;;;12.95;9.00;;;;;;;19.35;66.41;99933.58;1784790;80;25672;-62
2021/08/15 21:53:32;;;;;;;21.23;13.13;;;;;;;19.29;66.67;99937.84;1753631;81;25734;-62
2021/08/15 21:55:59;;;;;;;22.13;12.53;;;;;;;19.24;66.73;99938.19;1784422;80;25777;-63
2021/08/15 21:58:27;;;;;;;23.65;15.18;;;;;;;19.22;66.88;99937.76;1753772;81;25656;-62
2021/08/15 22:00:55;;;;;;;18.57;11.97;;;;;;;19.19;67.11;99942.05;1784701;80;28046;-63
2021/08/15 22:03:23;;;;;;;27.55;19.05;;;;;;;19.18;67.11;99930.87;1753668;81;25641;-63
2021/08/15 22:05:50;;;;;;;18.82;12.07;;;;;;;19.15;67.31;99937.69;1784856;80;26560;-63
2021/08/15 22:08:17;;;;;;;12.05;9.28;;;;;;;19.12;67.38;99932.95;1753548;81;27335;-63
2021/08/15 22:10:43;;;;;;;12.53;9.38;;;;;;;19.09;67.61;99931.77;1784954;80;25683;-64
2021/08/15 22:13:09;;;;;;;12.98;9.70;;;;;;;19.04;67.38;99928.77;1753827;81;27518;-64
2021/08/15 22:15:36;;;;;;;12.82;9.48;;;;;;;19.01;67.61;99927.36;1784505;80;25804;-64
2021/08/15 22:18:06;;;;;;;14.73;9.43;;;;;;;18.98;67.76;99928.11;1753775;81;26367;-63
2021/08/15 22:20:32;;;;;;;15.60;9.88;;;;;;;18.93;67.83;99920.22;1784732;80;25759;-64
2021/08/15 22:22:59;;;;;;;12.43;9.23;;;;;;;18.89;68.00;99918.81;1753605;81;25890;-63
2021/08/15 22:25:26;;;;;;;13.22;9.55;;;;;;;18.83;68.06;99914.27;1784881;80;28613;-64
2021/08/15 22:27:52;;;;;;;17.20;9.90;;;;;;;18.80;68.38;99914.19;1753675;81;25814;-63
2021/08/15 22:30:21;;;;;;;13.60;9.70;;;;;;;18.77;68.24;99916.30;1784052;80;25755;-63
2021/08/15 22:32:49;;;;;;;14.78;10.35;;;;;;;18.73;68.37;99908.05;1753283;81;27392;-62
2021/08/15 22:35:16;;;;;;;13.68;10.20;;;;;;;18.70;68.61;99917.00;1753372;81;25826;-63
2021/08/15 22:37:44;;;;;;;20.77;11.33;;;;;;;18.67;68.37;99919.11;1784121;80;27539;-63
2021/08/15 22:40:12;;;;;;;15.65;10.38;;;;;;;18.64;68.57;99919.30;1753145;81;25716;-63
2021/08/15 22:42:39;;;;;;;13.93;10.20;;;;;;;18.62;68.85;99907.13;1784308;80;26392;-64
2021/08/15 22:45:07;;;;;;;16.82;11.43;;;;;;;18.60;68.92;99909.45;1721995;81;25861;-63
2021/08/15 22:47:34;;;;;;;17.73;11.28;;;;;;;18.57;69.06;99900.02;1753623;80;26407;-63
2021/08/15 22:50:00;;;;;;;22.02;12.15;;;;;;;18.53;69.23;99900.56;1753151;81;27271;-64
2021/08/15 22:52:27;;;;;;;16.50;12.40;;;;;;;18.50;69.38;99901.30;1783905;80;26194;-63
2021/08/15 22:54:53;;;;;;;20.08;12.05;;;;;;;18.46;69.36;99906.73;1753194;81;25710;-63
2021/08/15 22:57:19;;;;;;;21.48;12.73;;;;;;;18.45;69.64;99909.84;1784371;80;25738;-63
2021/08/15 22:59:46;;;;;;;18.70;12.20;;;;;;;18.44;69.74;99910.43;1752791;81;25802;-62
2021/08/15 23:02:12;;;;;;;18.30;12.18;;;;;;;18.42;69.74;99911.95;1784375;80;27481;-63
2021/08/15 23:04:39;;;;;;;22.05;12.30;;;;;;;18.41;69.80;99920.75;1752424;81;25907;-63
2021/08/15 23:07:06;;;;;;;24.05;13.95;;;;;;;18.40;69.99;99918.38;1784081;80;25668;-63
2021/08/15 23:09:32;;;;;;;20.12;12.00;;;;;;;18.40;70.30;99921.12;1753251;81;25635;-64
2021/08/15 23:12:00;;;;;;;20.52;12.43;;;;;;;18.38;70.35;99913.86;1784391;80;25714;-64
2021/08/15 23:14:26;;;;;;;18.82;12.40;;;;;;;18.37;70.40;99921.30;1753062;81;27525;-64
2021/08/15 23:16:53;;;;;;;24.90;12.75;;;;;;;18.36;70.40;99918.34;1784338;80;25670;-64
2021/08/15 23:19:19;;;;;;;23.15;12.03;;;;;;;18.36;70.42;99913.45;1723678;81;25917;-62
2021/08/15 23:21:46;;;;;;;17.67;12.00;;;;;;;18.35;70.54;99919.48;1784158;80;26399;-63
2021/08/15 23:24:13;;;;;;;20.02;12.80;;;;;;;18.34;70.67;99915.19;1753303;81;26500;-63
2021/08/15 23:26:41;;;;;;;19.40;12.85;;;;;;;18.34;70.78;99913.01;1784317;80;27542;-63
2021/08/15 23:29:08;;;;;;;19.50;11.68;;;;;;;18.33;70.75;99910.08;1753002;81;25759;-63
2021/08/15 23:31:35;;;;;;;14.00;11.40;;;;;;;18.31;70.87;99902.83;1784377;80;25623;-63
2021/08/15 23:34:01;;;;;;;28.65;11.90;;;;;;;18.31;70.93;99894.02;1753105;81;25800;-63
2021/08/15 23:36:27;;;;;;;18.37;11.40;;;;;;;18.31;71.02;99894.02;1784257;80;25673;-63
2021/08/15 23:38:53;;;;;;;15.83;12.05;;;;;;;18.29;70.98;99886.77;1753334;81;28514;-64
2021/08/15 23:41:19;;;;;;;16.85;11.55;;;;;;;18.29;71.08;99877.19;1784194;80;25706;-63
2021/08/15 23:43:45;;;;;;;17.73;12.00;;;;;;;18.29;70.97;99862.13;1753101;81;25695;-63
2021/08/15 23:46:12;;;;;;;20.32;12.53;;;;;;;18.29;71.08;99860.76;1784176;80;26104;-64
2021/08/15 23:48:38;;;;;;;19.15;12.95;;;;;;;18.27;71.09;99849.39;1753114;81;25743;-65
2021/08/15 23:51:06;;;;;;;18.98;11.97;;;;;;;18.27;71.31;99835.71;1784114;80;27547;-65
2021/08/15 23:53:32;;;;;;;18.57;12.33;;;;;;;18.26;71.25;99835.49;1753079;81;25656;-65
2021/08/15 23:55:59;;;;;;;21.02;11.88;;;;;;;18.25;71.19;99827.87;1784062;80;25726;-65
2021/08/15 23:58:25;;;;;;;19.42;11.55;;;;;;;18.24;71.11;99822.77;1752898;81;25830;-65
